Fecha, hora, temperatura, viento dirección y velocidad, humedad y presión.

  • 26-02-2020 17:00:00 | 17.30°C | Noroeste |14.00 km/h | 31.00% | 1015.80 hPa
  • 26-02-2020 16:00:00 | 17.50°C | Noroeste |15.00 km/h | 33.00% | 1015.70 hPa
  • 26-02-2020 15:00:00 | 17.90°C | Oeste |22.00 km/h | 35.00% | 1015.80 hPa
  • 26-02-2020 14:00:00 | 17.70°C | Noroeste |17.00 km/h | 41.00% | 1016.10 hPa
  • 26-02-2020 12:00:00 | 16.70°C | Noroeste |22.00 km/h | 50.00% | 1016.70 hPa
  • 26-02-2020 12:00:00 | 16.70°C | Noroeste |22.00 km/h | 50.00% | 1016.70 hPa
  • 26-02-2020 11:00:00 | 16.10°C | Noroeste |14.00 km/h | 61.00% | 1016.50 hPa
  • 26-02-2020 10:00:00 | 15.50°C | Noroeste |17.00 km/h | 65.00% | 1016.20 hPa
  • 26-02-2020 09:00:00 | 14.10°C | Noroeste |16.00 km/h | 70.00% | 1015.60 hPa
  • 26-02-2020 08:00:00 | 13.50°C | Noroeste |18.00 km/h | 73.00% | 1014.80 hPa
  • 26-02-2020 07:00:00 | 13.30°C | Noroeste |16.00 km/h | 67.00% | 1014.40 hPa
  • 26-02-2020 06:00:00 | 12.00°C | Noroeste |10.00 km/h | 68.00% | 1013.80 hPa
  • 26-02-2020 05:00:00 | 12.60°C | Oeste |10.00 km/h | 77.00% | 1013.70 hPa
  • 26-02-2020 04:00:00 | 12.00°C | Oeste |13.00 km/h | 63.00% | 1013.70 hPa
  • 26-02-2020 03:00:00 | 9.40°C | Norte |2.00 km/h | 61.00% | 1014.00 hPa
  • 26-02-2020 02:00:00 | 8.20°C | Calma |0.00 km/h | 73.00% | 1014.20 hPa
  • 26-02-2020 01:00:00 | 9.10°C | Norte |4.00 km/h | 72.00% | 1014.00 hPa
  • 26-02-2020 00:00:00 | 9.90°C | Norte |5.00 km/h | 75.00% | 1014.30 hPa
  • 25-02-2020 23:00:00 | 10.90°C | Norte |12.00 km/h | 85.00% | 1014.50 hPa
  • 25-02-2020 22:00:00 | 11.90°C | Norte |7.00 km/h | 83.00% | 1014.50 hPa
  • 25-02-2020 21:00:00 | 12.90°C | Nordeste |6.00 km/h | 88.00% | 1014.20 hPa
  • 25-02-2020 20:00:00 | 13.90°C | Norte |5.00 km/h | 83.00% | 1014.10 hPa
  • 25-02-2020 19:00:00 | 14.30°C | Sudoeste |6.00 km/h | 84.00% | 1013.70 hPa
  • 25-02-2020 18:00:00 | 15.70°C | Sudoeste |12.00 km/h | 78.00% | 1013.20 hPa
    • diseño web asturias Información sobre el estado de las mareas, altura de la marejada, temperatura del agua y otros datos de Gijón en Asturias.

      Surf Gijón